createdAt,value
2016-05-15T00:00:50.030Z,0
2016-05-15T00:01:50.002Z,0
2016-05-15T00:02:49.973Z,0
2016-05-15T00:03:49.805Z,0
2016-05-15T00:04:49.917Z,0
2016-05-15T00:05:49.904Z,0
2016-05-15T00:06:49.875Z,0
2016-05-15T00:07:49.846Z,0
2016-05-15T00:08:49.661Z,0
2016-05-15T00:09:49.789Z,0
2016-05-15T00:10:49.777Z,0
2016-05-15T00:11:49.435Z,0
2016-05-15T00:12:49.704Z,0
2016-05-15T00:13:49.675Z,0
2016-05-15T00:14:49.662Z,0
2016-05-15T00:15:49.649Z,0
2016-05-15T00:16:49.605Z,0
2016-05-15T00:17:49.576Z,0
2016-05-15T00:18:49.564Z,0
2016-05-15T00:19:49.363Z,0
2016-05-15T00:20:49.491Z,0
2016-05-15T00:21:49.181Z,0
2016-05-15T00:22:49.449Z,0
2016-05-15T00:23:49.421Z,0
2016-05-15T00:24:49.392Z,0
2016-05-15T00:25:49.380Z,0
2016-05-15T00:26:49.350Z,0
2016-05-15T00:27:49.322Z,0
2016-05-15T00:28:49.293Z,0
2016-05-15T00:29:49.108Z,0
2016-05-15T00:30:49.080Z,0
2016-05-15T00:31:49.208Z,0
2016-05-15T00:32:49.180Z,0
2016-05-15T00:33:49.026Z,0
2016-05-15T00:34:48.825Z,0
2016-05-15T00:35:49.109Z,0
2016-05-15T00:36:49.080Z,0
2016-05-15T00:37:49.052Z,0
2016-05-15T00:38:49.023Z,0
2016-05-15T00:39:48.854Z,0
2016-05-15T00:40:48.966Z,0
2016-05-15T00:41:48.953Z,0
2016-05-15T00:42:48.925Z,0
2016-05-15T00:43:48.896Z,0
2016-05-15T00:44:48.712Z,0
2016-05-15T00:45:48.839Z,0
2016-05-15T00:46:48.826Z,0
2016-05-15T00:47:48.642Z,0
2016-05-15T00:48:49.019Z,0
2016-05-15T00:49:48.741Z,0
2016-05-15T00:50:48.712Z,0
2016-05-15T00:51:48.528Z,0
2016-05-15T00:52:48.670Z,0
2016-05-15T00:53:48.626Z,0
2016-05-15T00:54:48.457Z,0
2016-05-15T00:55:48.569Z,0
2016-05-15T00:56:48.556Z,0
2016-05-15T00:57:48.372Z,0
2016-05-15T00:58:48.499Z,0
2016-05-15T00:59:48.471Z,0
2016-05-15T01:00:48.442Z,0
2016-05-15T01:01:48.413Z,0
2016-05-15T01:02:48.400Z,0
2016-05-15T01:03:48.966Z,0
2016-05-15T01:04:48.610Z,0
2016-05-15T01:05:48.330Z,0
2016-05-15T01:06:48.146Z,0
2016-05-15T01:07:48.118Z,0
2016-05-15T01:08:48.245Z,0
2016-05-15T01:09:48.216Z,0
2016-05-15T01:10:48.204Z,0
2016-05-15T01:11:48.019Z,0
2016-05-15T01:12:48.146Z,0
2016-05-15T01:13:48.118Z,0
2016-05-15T01:14:48.089Z,0
2016-05-15T01:15:47.920Z,0
2016-05-15T01:16:48.048Z,0
2016-05-15T01:17:48.019Z,0
2016-05-15T01:18:48.162Z,0
2016-05-15T01:19:47.962Z,0
2016-05-15T01:20:47.933Z,0
2016-05-15T01:21:47.906Z,0
2016-05-15T01:22:47.892Z,0
2016-05-15T01:23:47.848Z,0
2016-05-15T01:24:47.834Z,0
2016-05-15T01:25:47.650Z,0
2016-05-15T01:26:47.622Z,0
2016-05-15T01:27:47.749Z,0
2016-05-15T01:28:47.564Z,0
2016-05-15T01:29:47.692Z,0
2016-05-15T01:30:47.679Z,0
2016-05-15T01:31:47.650Z,0
2016-05-15T01:32:47.622Z,0
2016-05-15T01:33:48.203Z,0
2016-05-15T01:34:47.565Z,0
2016-05-15T01:35:47.536Z,0
2016-05-15T01:36:47.508Z,0
2016-05-15T01:37:47.338Z,0
2016-05-15T01:38:47.466Z,0
2016-05-15T01:39:47.438Z,0
2016-05-15T01:40:47.252Z,0
2016-05-15T01:41:47.224Z,0
2016-05-15T01:42:47.351Z,0
2016-05-15T01:43:47.339Z,0
2016-05-15T01:44:47.154Z,0
2016-05-15T01:45:47.125Z,0
2016-05-15T01:46:47.253Z,0
2016-05-15T01:47:47.225Z,0
2016-05-15T01:48:47.321Z,0
2016-05-15T01:49:47.012Z,0
2016-05-15T01:50:47.139Z,0
2016-05-15T01:51:46.970Z,0
2016-05-15T01:52:47.097Z,0
2016-05-15T01:53:47.070Z,0
2016-05-15T01:54:47.040Z,0
2016-05-15T01:55:47.012Z,0
2016-05-15T01:56:46.983Z,0
2016-05-15T01:57:46.970Z,0
2016-05-15T01:58:46.926Z,0
2016-05-15T01:59:46.913Z,0
2016-05-15T02:00:46.728Z,0
2016-05-15T02:01:46.856Z,0
2016-05-15T02:02:46.828Z,0
2016-05-15T02:03:47.174Z,0
2016-05-15T02:04:46.771Z,0
2016-05-15T02:05:46.741Z,0
2016-05-15T02:06:46.713Z,0
2016-05-15T02:07:46.716Z,0
2016-05-15T02:08:46.671Z,0
2016-05-15T02:09:46.644Z,0
2016-05-15T02:10:46.615Z,0
2016-05-15T02:11:46.430Z,0
2016-05-15T02:12:46.401Z,0
2016-05-15T02:13:46.530Z,0
2016-05-15T02:14:46.516Z,0
2016-05-15T02:15:46.487Z,0
2016-05-15T02:16:46.444Z,0
2016-05-15T02:17:46.431Z,0
2016-05-15T02:18:46.401Z,0
2016-05-15T02:19:46.233Z,0
2016-05-15T02:20:46.360Z,0
2016-05-15T02:21:46.332Z,0
2016-05-15T02:22:46.303Z,0
2016-05-15T02:23:46.275Z,0
2016-05-15T02:24:46.246Z,0
2016-05-15T02:25:46.217Z,0
2016-05-15T02:26:46.033Z,0
2016-05-15T02:27:46.161Z,0
2016-05-15T02:28:45.992Z,0
2016-05-15T02:29:46.103Z,0
2016-05-15T02:30:46.091Z,0
2016-05-15T02:31:46.093Z,0
2016-05-15T02:32:46.034Z,0
2016-05-15T02:33:46.036Z,0
2016-05-15T02:34:45.819Z,0
2016-05-15T02:35:45.947Z,0
2016-05-15T02:36:45.778Z,0
2016-05-15T02:37:45.906Z,0
2016-05-15T02:38:45.877Z,0
2016-05-15T02:39:45.849Z,0
2016-05-15T02:40:45.821Z,0
2016-05-15T02:41:45.791Z,0
2016-05-15T02:42:45.607Z,0
2016-05-15T02:43:45.751Z,0
2016-05-15T02:44:45.722Z,0
2016-05-15T02:45:45.537Z,0
2016-05-15T02:46:45.540Z,0
2016-05-15T02:47:45.636Z,0
2016-05-15T02:48:45.623Z,0
2016-05-15T02:49:45.595Z,0
2016-05-15T02:50:45.550Z,0
2016-05-15T02:51:45.538Z,0
2016-05-15T02:52:45.509Z,0
2016-05-15T02:53:45.480Z,0
2016-05-15T02:54:45.451Z,4
2016-05-15T02:55:45.423Z,4
2016-05-15T02:56:45.411Z,4
2016-05-15T02:57:45.366Z,0
2016-05-15T02:58:45.338Z,4
2016-05-15T02:59:45.309Z,4
2016-05-15T03:00:45.296Z,4
2016-05-15T03:01:45.111Z,4
2016-05-15T03:02:45.083Z,4
2016-05-15T03:03:45.100Z,8
2016-05-15T03:04:45.057Z,8
2016-05-15T03:05:45.231Z,8
2016-05-15T03:06:45.203Z,8
2016-05-15T03:07:45.143Z,8
2016-05-15T03:08:44.943Z,12
2016-05-15T03:09:45.086Z,12
2016-05-15T03:10:45.026Z,16
2016-05-15T03:11:44.888Z,20
2016-05-15T03:12:44.875Z,20
2016-05-15T03:13:44.957Z,20
2016-05-15T03:14:44.943Z,24
2016-05-15T03:15:44.962Z,28
2016-05-15T03:16:44.886Z,28
2016-05-15T03:17:44.857Z,32
2016-05-15T03:18:44.829Z,36
2016-05-15T03:19:44.643Z,40
2016-05-15T03:20:44.772Z,52
2016-05-15T03:21:44.759Z,52
2016-05-15T03:22:44.714Z,60
2016-05-15T03:23:44.530Z,68
2016-05-15T03:24:44.657Z,80
2016-05-15T03:25:44.628Z,88
2016-05-15T03:26:44.617Z,100
2016-05-15T03:27:44.587Z,112
2016-05-15T03:28:44.559Z,124
2016-05-15T03:29:44.530Z,140
2016-05-15T03:30:44.486Z,152
2016-05-15T03:31:44.473Z,160
2016-05-15T03:32:44.444Z,176
2016-05-15T03:33:44.431Z,192
2016-05-15T03:34:44.403Z,212
2016-05-15T03:35:44.391Z,232
2016-05-15T03:36:44.346Z,260
2016-05-15T03:37:44.333Z,284
2016-05-15T03:38:44.289Z,308
2016-05-15T03:39:44.260Z,336
2016-05-15T03:40:44.232Z,360
2016-05-15T03:41:43.891Z,380
2016-05-15T03:42:44.175Z,400
2016-05-15T03:43:44.146Z,428
2016-05-15T03:44:43.960Z,452
2016-05-15T03:45:43.949Z,468
2016-05-15T03:46:43.904Z,480
2016-05-15T03:47:44.031Z,488
2016-05-15T03:48:44.488Z,480
2016-05-15T03:49:43.991Z,456
2016-05-15T03:50:43.806Z,452
2016-05-15T03:51:43.948Z,468
2016-05-15T03:52:43.921Z,492
2016-05-15T03:53:43.876Z,512
2016-05-15T03:54:43.691Z,568
2016-05-15T03:55:43.820Z,632
2016-05-15T03:56:43.650Z,688
2016-05-15T03:57:43.778Z,772
2016-05-15T03:58:43.748Z,844
2016-05-15T03:59:43.720Z,872
2016-05-15T04:00:43.536Z,876
2016-05-15T04:01:43.663Z,884
2016-05-15T04:02:43.634Z,904
2016-05-15T04:03:43.716Z,972
2016-05-15T04:04:43.609Z,1068
2016-05-15T04:05:43.549Z,1132
2016-05-15T04:06:43.536Z,1108
2016-05-15T04:07:43.508Z,1132
2016-05-15T04:08:43.338Z,1260
2016-05-15T04:09:43.294Z,1444
2016-05-15T04:10:43.422Z,1508
2016-05-15T04:11:43.409Z,1496
2016-05-15T04:12:43.380Z,1496
2016-05-15T04:13:43.351Z,1552
2016-05-15T04:14:43.324Z,1692
2016-05-15T04:15:43.294Z,1808
2016-05-15T04:16:43.109Z,1916
2016-05-15T04:17:43.254Z,1924
2016-05-15T04:18:43.537Z,1852
2016-05-15T04:19:43.321Z,1904
2016-05-15T04:20:43.168Z,2004
2016-05-15T04:21:42.983Z,2024
2016-05-15T04:22:43.126Z,2052
2016-05-15T04:23:42.940Z,2140
2016-05-15T04:24:43.085Z,2356
2016-05-15T04:25:43.040Z,2336
2016-05-15T04:26:43.012Z,2728
2016-05-15T04:27:42.998Z,2896
2016-05-15T04:28:42.954Z,2760
2016-05-15T04:29:42.942Z,2648
2016-05-15T04:30:42.913Z,2872
2016-05-15T04:31:42.728Z,2904
2016-05-15T04:32:42.856Z,2804
2016-05-15T04:33:42.828Z,2708
2016-05-15T04:34:42.658Z,2656
2016-05-15T04:35:42.786Z,2792
2016-05-15T04:36:42.758Z,2820
2016-05-15T04:37:42.728Z,2856
2016-05-15T04:38:42.716Z,3128
2016-05-15T04:39:42.672Z,3356
2016-05-15T04:40:42.643Z,3424
2016-05-15T04:41:42.630Z,3592
2016-05-15T04:42:42.602Z,3540
2016-05-15T04:43:42.416Z,3356
2016-05-15T04:44:42.388Z,3160
2016-05-15T04:45:42.359Z,3224
2016-05-15T04:46:42.347Z,3168
2016-05-15T04:47:42.318Z,3320
2016-05-15T04:48:42.446Z,3692
2016-05-15T04:49:42.121Z,4332
2016-05-15T04:50:42.404Z,4988
2016-05-15T04:51:42.220Z,5588
2016-05-15T04:52:42.348Z,6036
2016-05-15T04:53:42.318Z,6244
2016-05-15T04:54:42.290Z,6368
2016-05-15T04:55:42.277Z,6568
2016-05-15T04:56:42.234Z,6664
2016-05-15T04:57:42.220Z,6772
2016-05-15T04:58:42.192Z,6840
2016-05-15T04:59:42.162Z,6784
2016-05-15T05:00:41.994Z,6644
2016-05-15T05:01:42.106Z,6568
2016-05-15T05:02:42.092Z,6648
2016-05-15T05:03:42.268Z,6836
2016-05-15T05:04:41.895Z,6812
2016-05-15T05:05:42.007Z,6816
2016-05-15T05:06:41.995Z,6764
2016-05-15T05:07:41.966Z,6488
2016-05-15T05:08:41.780Z,6368
2016-05-15T05:09:41.909Z,6400
2016-05-15T05:10:41.724Z,6840
2016-05-15T05:11:41.852Z,7872
2016-05-15T05:12:41.838Z,9128
2016-05-15T05:13:41.810Z,10312
2016-05-15T05:14:41.782Z,10780
2016-05-15T05:15:41.752Z,10380
2016-05-15T05:16:41.724Z,9400
2016-05-15T05:17:41.711Z,8656
2016-05-15T05:18:41.683Z,8236
2016-05-15T05:19:41.373Z,8436
2016-05-15T05:20:41.626Z,9064
2016-05-15T05:21:41.613Z,9496
2016-05-15T05:22:41.584Z,9604
2016-05-15T05:23:41.556Z,8880
2016-05-15T05:24:41.542Z,7932
2016-05-15T05:25:41.515Z,7244
2016-05-15T05:26:41.485Z,6864
2016-05-15T05:27:41.456Z,6464
2016-05-15T05:28:41.288Z,5804
2016-05-15T05:29:41.415Z,5040
2016-05-15T05:30:41.089Z,4756
2016-05-15T05:31:41.373Z,4820
2016-05-15T05:32:41.331Z,4672
2016-05-15T05:33:41.161Z,4168
2016-05-15T05:34:41.131Z,4432
2016-05-15T05:35:41.276Z,5036
2016-05-15T05:36:41.091Z,4676
2016-05-15T05:37:41.218Z,4248
2016-05-15T05:38:41.174Z,4272
2016-05-15T05:39:41.161Z,4184
2016-05-15T05:40:41.133Z,3980
2016-05-15T05:41:41.119Z,4252
2016-05-15T05:42:41.091Z,4764
2016-05-15T05:43:41.063Z,4848
2016-05-15T05:44:41.033Z,4612
2016-05-15T05:45:41.005Z,4352
2016-05-15T05:46:40.993Z,4108
2016-05-15T05:47:40.964Z,3808
2016-05-15T05:48:40.935Z,3784
2016-05-15T05:49:40.907Z,4352
2016-05-15T05:50:40.894Z,5220
2016-05-15T05:51:40.865Z,5960
2016-05-15T05:52:40.837Z,6668
2016-05-15T05:53:40.824Z,7488
2016-05-15T05:54:40.639Z,7724
2016-05-15T05:55:40.767Z,6776
2016-05-15T05:56:40.738Z,6136
2016-05-15T05:57:40.709Z,5324
2016-05-15T05:58:40.525Z,4552
2016-05-15T05:59:40.667Z,4036
2016-05-15T06:00:40.640Z,4096
2016-05-15T06:01:40.767Z,3868
2016-05-15T06:02:40.520Z,3668
2016-05-15T06:03:40.570Z,3656
2016-05-15T06:04:40.541Z,3036
2016-05-15T06:05:40.512Z,3232
2016-05-15T06:06:40.484Z,4088
2016-05-15T06:07:40.470Z,4200
2016-05-15T06:08:40.270Z,4344
2016-05-15T06:09:40.429Z,5000
2016-05-15T06:10:40.386Z,5504
2016-05-15T06:11:40.356Z,7396
2016-05-15T06:12:40.328Z,7016
2016-05-15T06:13:40.299Z,6260
2016-05-15T06:14:40.286Z,5852
2016-05-15T06:15:40.258Z,5280
2016-05-15T06:16:40.229Z,4140
2016-05-15T06:17:40.061Z,2924
2016-05-15T06:18:40.032Z,2404
2016-05-15T06:19:40.846Z,2556
2016-05-15T06:20:40.131Z,3044
2016-05-15T06:21:40.102Z,3496
2016-05-15T06:22:39.932Z,4224
2016-05-15T06:23:40.045Z,5240
2016-05-15T06:24:39.860Z,6216
2016-05-15T06:25:40.004Z,6732
2016-05-15T06:26:39.975Z,6896
2016-05-15T06:27:39.790Z,6700
2016-05-15T06:28:39.918Z,6324
2016-05-15T06:29:39.889Z,6756
2016-05-15T06:30:39.876Z,7492
2016-05-15T06:31:39.848Z,6988
2016-05-15T06:32:39.820Z,6476
2016-05-15T06:33:39.634Z,6688
2016-05-15T06:34:39.778Z,6552
2016-05-15T06:35:39.734Z,6040
2016-05-15T06:36:39.720Z,5908
2016-05-15T06:37:39.692Z,6084
2016-05-15T06:38:39.663Z,6608
2016-05-15T06:39:39.636Z,7044
2016-05-15T06:40:39.622Z,7320
2016-05-15T06:41:39.577Z,7552
2016-05-15T06:42:39.565Z,7748
2016-05-15T06:43:39.552Z,7960
2016-05-15T06:44:39.508Z,8068
2016-05-15T06:45:39.322Z,8148
2016-05-15T06:46:39.311Z,8120
2016-05-15T06:47:39.438Z,8072
2016-05-15T06:48:39.409Z,8296
2016-05-15T06:49:39.584Z,8960
2016-05-15T06:50:39.352Z,9992
2016-05-15T06:51:39.338Z,11100
2016-05-15T06:52:39.138Z,12200
2016-05-15T06:53:39.282Z,13432
2016-05-15T06:54:38.941Z,14684
2016-05-15T06:55:39.068Z,15520
2016-05-15T06:56:39.196Z,15908
2016-05-15T06:57:39.027Z,16120
2016-05-15T06:58:39.154Z,16304
2016-05-15T06:59:39.126Z,16800
2016-05-15T07:00:39.113Z,17696
2016-05-15T07:01:39.085Z,18496
2016-05-15T07:02:39.056Z,19008
2016-05-15T07:03:39.028Z,19296
2016-05-15T07:04:38.859Z,19712
2016-05-15T07:05:38.986Z,20000
2016-05-15T07:06:38.957Z,19840
2016-05-15T07:07:38.929Z,20064
2016-05-15T07:08:38.900Z,20448
2016-05-15T07:09:38.887Z,20960
2016-05-15T07:10:38.858Z,21664
2016-05-15T07:11:38.847Z,21856
2016-05-15T07:12:38.661Z,22176
2016-05-15T07:13:38.632Z,22304
2016-05-15T07:14:38.761Z,23040
2016-05-15T07:15:38.732Z,24768
2016-05-15T07:16:38.719Z,27040
2016-05-15T07:17:38.691Z,29184
2016-05-15T07:18:38.661Z,33472
2016-05-15T07:19:38.680Z,28928
2016-05-15T07:20:38.620Z,27808
2016-05-15T07:21:38.591Z,26176
2016-05-15T07:22:38.422Z,24608
2016-05-15T07:23:38.550Z,23104
2016-05-15T07:24:38.224Z,22944
2016-05-15T07:25:38.509Z,22688
2016-05-15T07:26:38.480Z,22528
2016-05-15T07:27:38.451Z,22592
2016-05-15T07:28:38.438Z,23264
2016-05-15T07:29:38.426Z,22368
2016-05-15T07:30:38.241Z,22272
2016-05-15T07:31:38.368Z,21984
2016-05-15T07:32:38.356Z,22304
2016-05-15T07:33:38.374Z,21408
2016-05-15T07:34:38.361Z,21504
2016-05-15T07:35:38.285Z,20992
2016-05-15T07:36:38.257Z,20512
2016-05-15T07:37:38.244Z,20800
2016-05-15T07:38:37.923Z,21216
2016-05-15T07:39:38.266Z,20960
2016-05-15T07:40:38.125Z,21600
2016-05-15T07:41:38.295Z,20384
2016-05-15T07:42:38.326Z,20480
2016-05-15T07:43:38.344Z,21792
2016-05-15T07:44:38.331Z,21856
2016-05-15T07:45:38.162Z,18112
2016-05-15T07:46:38.165Z,14872
2016-05-15T07:47:38.308Z,15044
2016-05-15T07:48:38.290Z,17120
2016-05-15T07:49:38.298Z,20032
2016-05-15T07:50:38.275Z,21984
2016-05-15T07:51:38.252Z,21088
2016-05-15T07:52:38.230Z,19008
2016-05-15T07:53:41.501Z,21376
2016-05-15T07:54:38.037Z,24224
2016-05-15T07:55:38.010Z,25984
2016-05-15T07:56:38.155Z,30720
2016-05-15T07:57:38.129Z,30048
2016-05-15T07:58:38.117Z,28160
2016-05-15T07:59:38.090Z,22496
2016-05-15T08:00:37.921Z,23040
2016-05-15T08:01:38.049Z,29024
2016-05-15T08:02:38.022Z,38112
2016-05-15T08:03:38.009Z,27616
2016-05-15T08:04:37.996Z,23008
2016-05-15T08:05:37.968Z,20544
2016-05-15T08:06:37.941Z,18880
2016-05-15T08:07:37.944Z,17824
2016-05-15T08:08:37.915Z,18400
2016-05-15T08:09:37.872Z,20608
2016-05-15T08:10:37.858Z,20288
2016-05-15T08:11:37.860Z,17184
2016-05-15T08:12:37.660Z,12764
2016-05-15T08:13:37.788Z,10400
2016-05-15T08:14:37.775Z,9984
2016-05-15T08:15:37.746Z,11208
2016-05-15T08:16:37.734Z,12544
2016-05-15T08:17:37.705Z,13056
2016-05-15T08:18:37.676Z,12756
2016-05-15T08:19:37.695Z,11828
2016-05-15T08:20:37.635Z,11200
2016-05-15T08:21:37.607Z,10596
2016-05-15T08:22:37.593Z,10392
2016-05-15T08:23:37.581Z,10528
2016-05-15T08:24:37.552Z,10396
2016-05-15T08:25:37.523Z,10876
2016-05-15T08:26:37.511Z,12128
2016-05-15T08:27:37.481Z,15108
2016-05-15T08:28:37.470Z,18688
2016-05-15T08:29:37.440Z,21728
2016-05-15T08:30:37.411Z,23520
2016-05-15T08:31:37.399Z,22976
2016-05-15T08:32:37.370Z,23136
2016-05-15T08:33:37.342Z,22368
2016-05-15T08:34:37.219Z,22528
2016-05-15T08:35:37.145Z,23360
2016-05-15T08:36:37.272Z,23456
2016-05-15T08:37:37.102Z,21408
2016-05-15T08:38:37.231Z,18336
2016-05-15T08:39:37.202Z,16664
2016-05-15T08:40:37.188Z,15884
2016-05-15T08:41:37.176Z,13456
2016-05-15T08:42:37.132Z,8812
2016-05-15T08:43:36.807Z,5088
2016-05-15T08:44:37.090Z,4020
2016-05-15T08:45:37.077Z,4592
2016-05-15T08:46:36.893Z,5112
2016-05-15T08:47:36.879Z,5552
2016-05-15T08:48:36.851Z,6056
2016-05-15T08:49:37.198Z,7416
2016-05-15T08:50:36.951Z,10744
2016-05-15T08:51:36.796Z,15264
2016-05-15T08:52:36.909Z,19136
2016-05-15T08:53:36.879Z,22016
2016-05-15T08:54:36.867Z,23936
2016-05-15T08:55:36.839Z,25216
2016-05-15T08:56:36.810Z,26784
2016-05-15T08:57:36.797Z,27904
2016-05-15T08:58:36.768Z,27712
2016-05-15T08:59:36.740Z,27296
2016-05-15T09:00:36.727Z,26272
2016-05-15T09:01:36.698Z,24224
2016-05-15T09:02:36.529Z,21760
2016-05-15T09:03:36.485Z,20320
2016-05-15T09:04:36.489Z,20288
2016-05-15T09:05:36.444Z,21120
2016-05-15T09:06:36.414Z,22048
2016-05-15T09:07:36.542Z,22208
2016-05-15T09:08:36.529Z,21408
2016-05-15T09:09:36.501Z,19520
2016-05-15T09:10:36.348Z,18080
2016-05-15T09:11:36.460Z,18048
2016-05-15T09:12:36.430Z,19104
2016-05-15T09:13:36.263Z,20608
2016-05-15T09:14:36.233Z,22688
2016-05-15T09:15:36.360Z,24896
2016-05-15T09:16:36.332Z,27072
2016-05-15T09:17:36.305Z,28448
2016-05-15T09:18:36.307Z,29120
2016-05-15T09:19:36.278Z,29952
2016-05-15T09:20:36.249Z,29952
2016-05-15T09:21:36.220Z,28544
2016-05-15T09:22:36.193Z,27104
2016-05-15T09:23:36.179Z,27104
2016-05-15T09:24:36.167Z,29472
2016-05-15T09:25:36.185Z,31552
2016-05-15T09:26:36.140Z,34496
2016-05-15T09:27:36.081Z,40512
2016-05-15T09:28:35.912Z,55776
2016-05-15T09:29:35.726Z,88384
2016-05-15T09:30:36.026Z,97280
2016-05-15T09:31:35.998Z,97888
2016-05-15T09:32:35.984Z,101184
2016-05-15T09:33:35.956Z,100256
2016-05-15T09:34:35.959Z,109504
2016-05-15T09:35:35.930Z,49600
2016-05-15T09:36:35.902Z,50080
2016-05-15T09:37:35.889Z,54528
2016-05-15T09:38:35.908Z,46848
2016-05-15T09:39:35.863Z,42080
2016-05-15T09:40:35.835Z,42272
2016-05-15T09:41:35.822Z,35584
2016-05-15T09:42:35.808Z,34048
2016-05-15T09:43:35.796Z,32608
2016-05-15T09:44:35.782Z,31648
2016-05-15T09:45:35.751Z,30848
2016-05-15T09:46:35.739Z,29664
2016-05-15T09:47:35.569Z,28896
2016-05-15T09:48:35.697Z,29184
2016-05-15T09:49:35.699Z,30016
2016-05-15T09:50:35.515Z,29632
2016-05-15T09:51:35.502Z,28928
2016-05-15T09:52:35.630Z,26400
2016-05-15T09:53:35.460Z,24672
2016-05-15T09:54:35.432Z,22944
2016-05-15T09:55:35.575Z,20864
2016-05-15T09:56:35.562Z,18112
2016-05-15T09:57:35.549Z,15376
2016-05-15T09:58:35.520Z,13844
2016-05-15T09:59:35.352Z,12420
2016-05-15T10:00:35.479Z,10744
2016-05-15T10:01:35.467Z,8296
2016-05-15T10:02:35.437Z,5616
2016-05-15T10:03:35.269Z,4708
2016-05-15T10:04:35.256Z,5952
2016-05-15T10:05:35.383Z,8328
2016-05-15T10:06:35.370Z,12568
2016-05-15T10:07:35.342Z,14440
2016-05-15T10:08:35.329Z,15320
2016-05-15T10:09:35.300Z,14356
2016-05-15T10:10:35.271Z,14372
2016-05-15T10:11:35.243Z,16520
2016-05-15T10:12:35.075Z,19616
2016-05-15T10:13:35.202Z,21888
2016-05-15T10:14:35.173Z,23520
2016-05-15T10:15:35.161Z,24320
2016-05-15T10:16:35.132Z,23808
2016-05-15T10:17:35.119Z,23296
2016-05-15T10:18:35.090Z,22880
2016-05-15T10:19:35.078Z,22592
2016-05-15T10:20:34.893Z,22272
2016-05-15T10:21:35.036Z,20064
2016-05-15T10:22:35.007Z,17728
2016-05-15T10:23:34.993Z,15412
2016-05-15T10:24:34.951Z,13476
2016-05-15T10:25:34.921Z,12132
2016-05-15T10:26:34.909Z,11568
2016-05-15T10:27:34.895Z,11312
2016-05-15T10:28:34.882Z,11616
2016-05-15T10:29:34.698Z,12988
2016-05-15T10:30:34.810Z,15048
2016-05-15T10:31:35.000Z,16952
2016-05-15T10:32:34.612Z,21536
2016-05-15T10:33:34.740Z,25760
2016-05-15T10:34:34.728Z,29024
2016-05-15T10:35:34.714Z,33856
2016-05-15T10:36:34.669Z,38976
2016-05-15T10:37:34.657Z,39968
2016-05-15T10:38:34.629Z,43904
2016-05-15T10:39:34.600Z,36864
2016-05-15T10:40:34.586Z,36800
2016-05-15T10:41:34.559Z,35008
2016-05-15T10:42:34.389Z,34144
2016-05-15T10:43:34.517Z,44032
2016-05-15T10:44:34.504Z,59264
2016-05-15T10:45:34.491Z,38656
2016-05-15T10:46:34.447Z,48352
2016-05-15T10:47:34.466Z,97376
2016-05-15T10:48:34.405Z,91680
2016-05-15T10:49:34.408Z,85888
2016-05-15T10:50:34.363Z,84512
2016-05-15T10:51:34.195Z,84576
2016-05-15T10:52:34.338Z,88608
2016-05-15T10:53:34.324Z,94592
2016-05-15T10:54:34.312Z,102752
2016-05-15T10:55:34.283Z,94208
2016-05-15T10:56:34.255Z,80288
2016-05-15T10:57:34.085Z,87968
2016-05-15T10:58:34.229Z,108096
2016-05-15T10:59:34.059Z,118752
2016-05-15T11:00:34.204Z,111872
2016-05-15T11:01:34.190Z,56800
2016-05-15T11:02:34.021Z,41664
2016-05-15T11:03:34.164Z,43008
2016-05-15T11:04:34.262Z,49152
2016-05-15T11:05:34.138Z,43808
2016-05-15T11:06:34.126Z,42624
2016-05-15T11:07:33.941Z,40896
2016-05-15T11:08:33.944Z,39072
2016-05-15T11:09:34.071Z,35936
2016-05-15T11:10:34.059Z,32544
2016-05-15T11:11:34.045Z,29728
2016-05-15T11:12:34.033Z,30208
2016-05-15T11:13:34.019Z,36256
2016-05-15T11:14:33.850Z,57760
2016-05-15T11:15:33.837Z,61312
2016-05-15T11:16:33.981Z,23136
2016-05-15T11:17:33.952Z,16460
2016-05-15T11:18:33.939Z,15488
2016-05-15T11:19:34.019Z,16412
2016-05-15T11:20:33.897Z,13436
2016-05-15T11:21:33.885Z,8760
2016-05-15T11:22:33.871Z,6572
2016-05-15T11:23:33.843Z,5640
2016-05-15T11:24:33.690Z,5468
2016-05-15T11:25:33.660Z,5704
2016-05-15T11:26:33.804Z,6756
2016-05-15T11:27:33.776Z,8912
2016-05-15T11:28:33.762Z,10872
2016-05-15T11:29:33.578Z,11916
2016-05-15T11:30:33.706Z,13992
2016-05-15T11:31:33.537Z,16592
2016-05-15T11:32:33.679Z,19904
2016-05-15T11:33:33.495Z,22944
2016-05-15T11:34:33.514Z,25440
2016-05-15T11:35:33.610Z,26528
2016-05-15T11:36:33.581Z,27104
2016-05-15T11:37:33.428Z,27968
2016-05-15T11:38:33.227Z,29312
2016-05-15T11:39:33.527Z,30944
2016-05-15T11:40:33.514Z,32896
2016-05-15T11:41:33.486Z,34592
2016-05-15T11:42:33.566Z,35264
2016-05-15T11:43:33.444Z,36640
2016-05-15T11:44:33.430Z,39424
2016-05-15T11:45:33.403Z,42400
2016-05-15T11:46:33.217Z,43008
2016-05-15T11:47:33.189Z,47904
2016-05-15T11:48:33.332Z,39552
2016-05-15T11:49:33.429Z,27616
2016-05-15T11:50:33.134Z,23136
2016-05-15T11:51:32.966Z,20128
2016-05-15T11:52:33.249Z,18496
2016-05-15T11:53:33.221Z,17952
2016-05-15T11:54:33.895Z,18144
2016-05-15T11:55:33.179Z,18944
2016-05-15T11:56:33.103Z,19104
2016-05-15T11:57:33.138Z,18592
2016-05-15T11:58:33.125Z,18272
2016-05-15T11:59:33.127Z,18144
2016-05-15T12:00:32.926Z,18464
2016-05-15T12:01:33.054Z,19488
2016-05-15T12:02:33.026Z,20928
2016-05-15T12:03:32.857Z,22080
2016-05-15T12:04:32.845Z,22944
2016-05-15T12:05:32.815Z,23808
2016-05-15T12:06:32.959Z,25088
2016-05-15T12:07:32.930Z,25824
2016-05-15T12:08:32.901Z,25888
2016-05-15T12:09:32.889Z,25600
2016-05-15T12:10:32.861Z,24608
2016-05-15T12:11:32.847Z,23136
2016-05-15T12:12:32.819Z,22240
2016-05-15T12:13:32.790Z,21920
2016-05-15T12:14:32.622Z,21536
2016-05-15T12:15:32.749Z,21920
2016-05-15T12:16:32.736Z,23136
2016-05-15T12:17:32.707Z,24320
2016-05-15T12:18:32.694Z,24704
2016-05-15T12:19:32.837Z,25088
2016-05-15T12:20:32.637Z,25728
2016-05-15T12:21:32.641Z,26560
2016-05-15T12:22:32.611Z,28544
2016-05-15T12:23:32.599Z,31008
2016-05-15T12:24:32.569Z,34080
2016-05-15T12:25:32.385Z,36480
2016-05-15T12:36:12.836Z,37184
2016-05-15T12:37:12.667Z,27968
2016-05-15T12:38:12.795Z,30752
2016-05-15T12:39:12.626Z,110336
2016-05-15T12:40:12.754Z,104032
2016-05-15T12:41:12.756Z,68768
2016-05-15T12:42:12.572Z,36448
2016-05-15T12:43:12.699Z,111456
2016-05-15T12:44:12.530Z,98432
2016-05-15T12:45:12.516Z,85984
2016-05-15T12:46:12.661Z,103648
2016-05-15T12:47:12.647Z,101600
2016-05-15T12:48:12.619Z,46656
2016-05-15T12:49:12.606Z,49472
2016-05-15T12:50:12.296Z,104704
2016-05-15T12:51:12.580Z,111296
2016-05-15T12:52:12.410Z,53760
2016-05-15T12:53:12.554Z,31872
2016-05-15T12:54:12.385Z,31680
2016-05-15T12:55:12.528Z,35456
2016-05-15T12:56:12.374Z,38784
2016-05-15T12:57:12.346Z,42272
2016-05-15T12:58:12.177Z,40800
2016-05-15T12:59:12.477Z,34688
2016-05-15T13:00:12.307Z,31520
2016-05-15T13:01:12.451Z,30944
2016-05-15T13:02:12.437Z,29792
2016-05-15T13:03:12.268Z,28320
2016-05-15T13:04:12.411Z,27840
2016-05-15T13:05:12.243Z,28672
2016-05-15T13:06:12.370Z,33952
2016-05-15T13:07:12.357Z,29312
2016-05-15T13:08:12.344Z,28576
2016-05-15T13:09:12.331Z,28064
2016-05-15T13:10:12.317Z,27552
2016-05-15T13:11:12.289Z,27072
2016-05-15T13:12:12.137Z,27168
2016-05-15T13:13:12.264Z,29088
2016-05-15T13:14:12.236Z,32288
2016-05-15T13:15:12.222Z,37920
2016-05-15T13:16:11.897Z,49376
2016-05-15T13:17:12.197Z,39680
2016-05-15T13:18:12.169Z,39232
2016-05-15T13:19:12.155Z,39872
2016-05-15T13:20:12.158Z,40224
2016-05-15T13:21:11.957Z,94752
2016-05-15T13:22:12.100Z,43008
2016-05-15T13:23:12.088Z,32832
2016-05-15T13:24:12.074Z,30688
2016-05-15T13:25:12.047Z,31040
2016-05-15T13:26:11.877Z,35424
2016-05-15T13:27:12.020Z,56256
2016-05-15T13:28:11.991Z,34144
2016-05-15T13:29:11.994Z,92352
2016-05-15T13:30:11.981Z,90240
2016-05-15T13:31:11.954Z,49696
2016-05-15T13:32:11.784Z,35744
2016-05-15T13:33:11.912Z,97888
2016-05-15T13:34:11.898Z,94336
2016-05-15T13:35:11.729Z,25280
2016-05-15T13:36:11.888Z,31168